Time;durP1;ratioP1;P1;durP2;ratioP2;P2;SDS_P1;SDS_P2;PMS_P1;PMS_P2;Temp;Humidity;BMP_temperature;BMP_pressure;BME280_temperature;BME280_humidity;BME280_pressure;Samples;Min_cycle;Max_cycle;Signal;HPM_P1;HPM_P2
2022/11/05 00:09:47;;;;;;;6.40;4.38;;;;;;;;;;5010913;28;20054;-80
2022/11/05 00:17:42;;;;;;;8.23;4.72;;;;;;;;;;5012892;28;20072;-80
2022/11/05 00:20:10;;;;;;;11.52;4.15;;;;;;;;;;5017958;28;20021;-80
2022/11/05 00:25:21;;;;;;;9.60;5.38;;;;;;;;;;5018444;28;20095;-82
2022/11/05 00:28:00;;;;;;;7.90;4.60;;;;;;;;;;5017422;28;20025;-80
2022/11/05 00:30:26;;;;;;;7.75;4.30;;;;;;;;;;5015531;28;20375;-79
2022/11/05 00:32:52;;;;;;;9.80;4.85;;;;;;;;;;5015393;28;20061;-80
2022/11/05 00:35:20;;;;;;;9.57;4.70;;;;;;;;;;5017048;28;20470;-79
2022/11/05 00:37:46;;;;;;;13.68;7.50;;;;;;;;;;5015895;28;20036;-81
2022/11/05 00:40:13;;;;;;;23.20;11.10;;;;;;;;;;5016941;28;20025;-80
2022/11/05 00:45:25;;;;;;;8.45;4.43;;;;;;;;;;5016226;28;20129;-80
2022/11/05 00:50:34;;;;;;;9.00;4.82;;;;;;;;;;5016464;28;20120;-80
2022/11/05 00:53:00;;;;;;;7.75;4.55;;;;;;;;;;5015586;28;20060;-81
2022/11/05 00:55:33;;;;;;;9.27;4.60;;;;;;;;;;5015070;28;20026;-80
2022/11/05 00:58:02;;;;;;;9.93;4.47;;;;;;;;;;5016190;28;20067;-80
2022/11/05 01:00:29;;;;;;;9.27;4.57;;;;;;;;;;5015678;28;20025;-81
2022/11/05 01:02:59;;;;;;;7.50;4.35;;;;;;;;;;5017582;28;20084;-80
2022/11/05 01:05:25;;;;;;;11.63;5.57;;;;;;;;;;5016948;28;20025;-80
2022/11/05 01:07:52;;;;;;;8.40;5.13;;;;;;;;;;5017018;28;20030;-81
2022/11/05 01:10:18;;;;;;;10.85;5.18;;;;;;;;;;5016971;28;20040;-81
2022/11/05 01:12:43;;;;;;;9.13;4.78;;;;;;;;;;5016264;28;20050;-80
2022/11/05 01:15:09;;;;;;;11.13;4.80;;;;;;;;;;5015293;28;20116;-81
2022/11/05 01:17:34;;;;;;;12.63;5.55;;;;;;;;;;5014855;28;20022;-80
2022/11/05 01:20:00;;;;;;;7.32;4.82;;;;;;;;;;5015279;28;20113;-81
2022/11/05 01:22:26;;;;;;;7.20;4.20;;;;;;;;;;5016501;28;20084;-79
2022/11/05 01:24:51;;;;;;;8.52;5.40;;;;;;;;;;5047630;28;20026;-80
2022/11/05 01:27:17;;;;;;;8.18;4.90;;;;;;;;;;5016762;28;20032;-80
2022/11/05 01:29:42;;;;;;;9.13;4.70;;;;;;;;;;5016349;28;20061;-79
2022/11/05 01:32:08;;;;;;;7.57;4.82;;;;;;;;;;5016294;28;20057;-80
2022/11/05 01:34:33;;;;;;;8.75;5.03;;;;;;;;;;5014159;28;20052;-80
2022/11/05 01:36:58;;;;;;;12.35;4.95;;;;;;;;;;5015139;28;20030;-80
2022/11/05 01:39:24;;;;;;;11.13;4.45;;;;;;;;;;5013840;28;20054;-79
2022/11/05 01:41:49;;;;;;;13.85;5.40;;;;;;;;;;5015254;28;20026;-80
2022/11/05 01:44:46;;;;;;;8.20;4.45;;;;;;;;;;5015125;28;20386;-80
2022/11/05 01:47:36;;;;;;;8.82;3.97;;;;;;;;;;5015968;28;20359;-80
2022/11/05 01:50:19;;;;;;;7.85;4.40;;;;;;;;;;5015187;28;20105;-80
2022/11/05 01:52:45;;;;;;;10.70;4.05;;;;;;;;;;5012944;28;20030;-79
2022/11/05 01:55:12;;;;;;;5.18;3.53;;;;;;;;;;5013525;28;20117;-80
2022/11/05 01:57:38;;;;;;;8.30;4.30;;;;;;;;;;5013831;28;20030;-80
2022/11/05 02:00:04;;;;;;;10.57;4.45;;;;;;;;;;5013817;28;20549;-80
2022/11/05 02:02:30;;;;;;;6.78;3.78;;;;;;;;;;5013372;28;20508;-80
2022/11/05 02:05:03;;;;;;;8.77;4.00;;;;;;;;;;5012839;28;20022;-81
2022/11/05 02:07:29;;;;;;;8.77;3.53;;;;;;;;;;5013108;28;20022;-79
2022/11/05 02:10:01;;;;;;;7.07;3.67;;;;;;;;;;5013188;28;20471;-79
2022/11/05 02:12:28;;;;;;;10.07;5.35;;;;;;;;;;5014932;28;20034;-80
2022/11/05 02:14:54;;;;;;;8.82;4.72;;;;;;;;;;5013178;28;20454;-81
2022/11/05 02:17:50;;;;;;;5.90;3.78;;;;;;;;;;5013446;28;20029;-80
2022/11/05 02:20:37;;;;;;;7.90;4.18;;;;;;;;;;5013542;28;20170;-79
2022/11/05 02:23:25;;;;;;;7.00;3.63;;;;;;;;;;5014134;28;20430;-82
2022/11/05 02:26:02;;;;;;;6.15;3.97;;;;;;;;;;5006644;28;20045;-81
2022/11/05 02:28:46;;;;;;;4.85;3.28;;;;;;;;;;4993772;28;20033;-79
2022/11/05 02:31:36;;;;;;;7.55;3.80;;;;;;;;;;4995391;28;20109;-80
2022/11/05 02:35:01;;;;;;;8.88;4.22;;;;;;;;;;4992901;28;20137;-80
2022/11/05 02:37:29;;;;;;;4.30;2.88;;;;;;;;;;4957745;28;20039;-79
2022/11/05 02:40:26;;;;;;;5.25;3.60;;;;;;;;;;4994119;28;20061;-80
2022/11/05 02:43:02;;;;;;;8.65;4.30;;;;;;;;;;4994259;28;20029;-80
2022/11/05 02:45:45;;;;;;;8.20;3.38;;;;;;;;;;4994529;28;20378;-80
2022/11/05 02:48:28;;;;;;;5.45;3.45;;;;;;;;;;4994478;28;20112;-81
2022/11/05 02:51:35;;;;;;;5.47;3.85;;;;;;;;;;4993635;28;20109;-81
2022/11/05 02:54:19;;;;;;;6.63;3.30;;;;;;;;;;4992797;28;20042;-80
2022/11/05 02:56:48;;;;;;;6.35;3.30;;;;;;;;;;4993599;28;20026;-80
2022/11/05 02:59:14;;;;;;;8.27;3.80;;;;;;;;;;4994586;28;20053;-79
2022/11/05 03:01:42;;;;;;;7.28;3.33;;;;;;;;;;4995291;28;20026;-80
2022/11/05 03:04:10;;;;;;;4.28;3.67;;;;;;;;;;4993736;28;20030;-79
2022/11/05 03:06:50;;;;;;;5.82;3.88;;;;;;;;;;4993467;28;20053;-79
2022/11/05 03:09:18;;;;;;;4.97;3.58;;;;;;;;;;4994660;28;20066;-79
2022/11/05 03:12:14;;;;;;;6.25;3.65;;;;;;;;;;4994675;28;20022;-82
2022/11/05 03:14:58;;;;;;;5.80;3.42;;;;;;;;;;4994084;28;20022;-80
2022/11/05 03:17:39;;;;;;;6.82;4.55;;;;;;;;;;4992722;28;20026;-80
2022/11/05 03:20:05;;;;;;;7.90;3.83;;;;;;;;;;4994855;28;20076;-81
2022/11/05 03:22:36;;;;;;;9.15;3.85;;;;;;;;;;4994274;28;20414;-79
2022/11/05 03:25:07;;;;;;;6.63;4.00;;;;;;;;;;4995948;28;20026;-80
2022/11/05 03:27:38;;;;;;;5.88;4.18;;;;;;;;;;5014423;28;20026;-81
2022/11/05 03:30:09;;;;;;;6.87;4.67;;;;;;;;;;5012301;28;20026;-80
2022/11/05 03:32:39;;;;;;;7.35;4.60;;;;;;;;;;5013398;28;20101;-80
2022/11/05 03:35:11;;;;;;;8.30;4.85;;;;;;;;;;5014175;28;20440;-80
2022/11/05 03:37:40;;;;;;;8.98;5.13;;;;;;;;;;5013791;28;20040;-80
2022/11/05 03:40:09;;;;;;;9.30;4.53;;;;;;;;;;5012079;28;20298;-80
2022/11/05 03:42:37;;;;;;;6.65;4.22;;;;;;;;;;5014139;28;20038;-80
2022/11/05 03:45:13;;;;;;;9.38;4.80;;;;;;;;;;5014357;28;20033;-79
2022/11/05 03:47:42;;;;;;;10.80;5.57;;;;;;;;;;5014709;28;20037;-79
2022/11/05 03:50:07;;;;;;;7.55;4.32;;;;;;;;;;5013254;28;20029;-79
2022/11/05 03:52:40;;;;;;;7.50;4.60;;;;;;;;;;5012909;28;20143;-81
2022/11/05 03:55:06;;;;;;;10.02;5.10;;;;;;;;;;5012805;28;20124;-80
2022/11/05 03:57:38;;;;;;;9.18;4.53;;;;;;;;;;5012915;28;20057;-81
2022/11/05 04:00:09;;;;;;;7.57;4.80;;;;;;;;;;5013554;28;20068;-81
2022/11/05 04:02:36;;;;;;;8.63;5.00;;;;;;;;;;5013983;28;20021;-80
2022/11/05 04:05:02;;;;;;;12.52;5.60;;;;;;;;;;5013457;28;20018;-80
2022/11/05 04:18:24;;;;;;;8.45;4.20;;;;;;;;;;5015692;28;20393;-81
2022/11/05 04:26:22;;;;;;;10.30;4.60;;;;;;;;;;5014960;28;20045;-80
2022/11/05 04:31:32;;;;;;;7.00;4.90;;;;;;;;;;5013867;28;20037;-80
2022/11/05 04:33:58;;;;;;;7.43;5.07;;;;;;;;;;5013763;28;20034;-81
2022/11/05 04:36:23;;;;;;;9.63;4.80;;;;;;;;;;5013800;28;20079;-81
2022/11/05 04:38:49;;;;;;;9.60;4.97;;;;;;;;;;5012995;28;20061;-79
2022/11/05 04:41:16;;;;;;;7.10;5.18;;;;;;;;;;5012970;28;20025;-79
2022/11/05 04:43:42;;;;;;;8.85;5.68;;;;;;;;;;5013668;28;20014;-80
2022/11/05 04:46:08;;;;;;;6.93;4.60;;;;;;;;;;5012183;28;20057;-80
2022/11/05 04:48:34;;;;;;;8.77;5.18;;;;;;;;;;5010590;28;20034;-79
2022/11/05 04:50:59;;;;;;;10.15;4.75;;;;;;;;;;5010432;28;20044;-80
2022/11/05 04:53:25;;;;;;;12.07;4.95;;;;;;;;;;5011111;28;20259;-80
2022/11/05 04:55:50;;;;;;;8.95;4.97;;;;;;;;;;5011392;28;20083;-80
2022/11/05 04:58:16;;;;;;;9.07;5.28;;;;;;;;;;5010125;28;20037;-79
2022/11/05 05:00:41;;;;;;;9.73;5.72;;;;;;;;;;5011673;28;20030;-81
2022/11/05 05:03:07;;;;;;;8.27;4.63;;;;;;;;;;5012217;28;20639;-81
2022/11/05 05:05:32;;;;;;;6.88;4.82;;;;;;;;;;5015541;28;20030;-80
2022/11/05 05:08:02;;;;;;;8.25;4.53;;;;;;;;;;5016200;28;20099;-80
2022/11/05 05:10:27;;;;;;;9.02;5.70;;;;;;;;;;5016089;28;20038;-80
2022/11/05 05:12:53;;;;;;;11.35;4.60;;;;;;;;;;5016889;28;20038;-79
2022/11/05 05:15:18;;;;;;;10.00;4.95;;;;;;;;;;5016653;28;20433;-80
2022/11/05 05:17:49;;;;;;;7.40;5.28;;;;;;;;;;5016329;28;20109;-79
2022/11/05 05:22:58;;;;;;;6.45;4.80;;;;;;;;;;5015688;28;20104;-80
2022/11/05 05:25:24;;;;;;;9.38;5.28;;;;;;;;;;5016564;28;20446;-80
2022/11/05 05:27:50;;;;;;;9.15;5.18;;;;;;;;;;5015403;28;20102;-79
2022/11/05 05:30:16;;;;;;;9.05;5.22;;;;;;;;;;5016086;28;20030;-80
2022/11/05 05:32:41;;;;;;;10.70;4.80;;;;;;;;;;5017962;28;20053;-80
2022/11/05 05:35:07;;;;;;;13.07;5.55;;;;;;;;;;5015618;28;20026;-80
2022/11/05 05:37:32;;;;;;;6.80;5.15;;;;;;;;;;5016195;28;20112;-79
2022/11/05 05:39:58;;;;;;;10.70;5.68;;;;;;;;;;5016098;28;20050;-81
2022/11/05 05:42:23;;;;;;;10.40;4.75;;;;;;;;;;5014884;28;20067;-80
2022/11/05 05:44:49;;;;;;;8.07;4.88;;;;;;;;;;5015767;28;20157;-79
2022/11/05 05:47:14;;;;;;;8.98;4.95;;;;;;;;;;5016018;28;20033;-80
2022/11/05 05:49:40;;;;;;;8.18;4.82;;;;;;;;;;5015072;28;20030;-80
2022/11/05 05:52:05;;;;;;;8.45;5.50;;;;;;;;;;5014722;28;20345;-80
2022/11/05 05:54:31;;;;;;;17.58;9.60;;;;;;;;;;5015812;28;20018;-80
2022/11/05 05:56:56;;;;;;;8.63;5.80;;;;;;;;;;5015254;28;20022;-80
2022/11/05 05:59:22;;;;;;;8.15;5.50;;;;;;;;;;5014567;28;20101;-79
2022/11/05 06:01:48;;;;;;;10.80;5.65;;;;;;;;;;5014331;28;20088;-80
2022/11/05 06:04:14;;;;;;;11.82;6.75;;;;;;;;;;5015563;28;20022;-79
2022/11/05 06:06:39;;;;;;;9.68;6.50;;;;;;;;;;5015680;28;20361;-82
2022/11/05 06:09:05;;;;;;;8.63;5.53;;;;;;;;;;5014340;28;20025;-79
2022/11/05 06:11:30;;;;;;;9.68;5.30;;;;;;;;;;5013229;28;20033;-80
2022/11/05 06:13:56;;;;;;;10.55;5.97;;;;;;;;;;5014804;28;20068;-80
2022/11/05 06:16:22;;;;;;;8.50;5.55;;;;;;;;;;5013557;28;20022;-79
2022/11/05 06:18:47;;;;;;;8.20;5.20;;;;;;;;;;5013043;28;20022;-80
2022/11/05 06:21:16;;;;;;;9.57;5.47;;;;;;;;;;5012885;28;20116;-80
2022/11/05 06:23:44;;;;;;;9.70;5.70;;;;;;;;;;5015479;28;20032;-79
2022/11/05 06:26:13;;;;;;;9.48;5.32;;;;;;;;;;5015776;28;20517;-81
2022/11/05 06:28:40;;;;;;;11.80;5.90;;;;;;;;;;5014974;28;20083;-79
2022/11/05 06:31:06;;;;;;;14.50;6.38;;;;;;;;;;5014289;28;20060;-80
2022/11/05 06:33:32;;;;;;;10.50;6.38;;;;;;;;;;5030886;28;20037;-79
2022/11/05 06:35:59;;;;;;;11.15;6.03;;;;;;;;;;5014271;28;20038;-81
2022/11/05 06:38:24;;;;;;;10.35;5.35;;;;;;;;;;5016007;28;20045;-82
2022/11/05 06:40:49;;;;;;;10.05;6.20;;;;;;;;;;5015707;28;20045;-81
2022/11/05 06:43:15;;;;;;;10.77;5.80;;;;;;;;;;5016343;28;20041;-80
2022/11/05 06:45:40;;;;;;;13.43;6.68;;;;;;;;;;5016433;28;20034;-80
2022/11/05 06:48:06;;;;;;;10.65;5.63;;;;;;;;;;5014146;28;20030;-81
2022/11/05 06:50:31;;;;;;;12.88;7.03;;;;;;;;;;5030911;28;20059;-80
2022/11/05 06:53:02;;;;;;;11.32;5.50;;;;;;;;;;5014681;28;20421;-80
2022/11/05 06:55:29;;;;;;;10.25;6.00;;;;;;;;;;5013413;28;20041;-79
2022/11/05 06:57:55;;;;;;;12.13;6.10;;;;;;;;;;5013111;28;20034;-81
2022/11/05 07:00:21;;;;;;;7.50;5.60;;;;;;;;;;5014140;28;20025;-81
2022/11/05 07:02:47;;;;;;;10.30;6.15;;;;;;;;;;5013071;28;20037;-80
2022/11/05 07:05:15;;;;;;;12.02;6.25;;;;;;;;;;5014438;28;20029;-80
2022/11/05 07:07:42;;;;;;;11.27;6.32;;;;;;;;;;5013850;28;20075;-80
2022/11/05 07:10:11;;;;;;;11.73;6.35;;;;;;;;;;5015209;28;20105;-80
2022/11/05 07:12:36;;;;;;;12.50;7.05;;;;;;;;;;5013722;28;20175;-80
2022/11/05 07:15:02;;;;;;;12.65;6.25;;;;;;;;;;5014910;28;20490;-80
2022/11/05 07:17:28;;;;;;;9.35;6.25;;;;;;;;;;5014002;28;20532;-81
2022/11/05 07:19:53;;;;;;;13.65;7.10;;;;;;;;;;5014723;28;20029;-80
2022/11/05 07:22:20;;;;;;;11.25;6.82;;;;;;;;;;5015249;28;20041;-82
2022/11/05 07:24:46;;;;;;;10.65;6.18;;;;;;;;;;5014161;28;20032;-81
2022/11/05 07:27:15;;;;;;;11.57;7.22;;;;;;;;;;5015879;28;20029;-81
2022/11/05 07:29:41;;;;;;;11.75;6.40;;;;;;;;;;5031107;28;20145;-81
2022/11/05 07:32:06;;;;;;;13.77;6.85;;;;;;;;;;5015678;28;20056;-80
2022/11/05 07:34:32;;;;;;;13.13;7.15;;;;;;;;;;5015974;28;20057;-80
2022/11/05 07:36:58;;;;;;;12.60;7.55;;;;;;;;;;5013709;28;20030;-80
2022/11/05 07:39:23;;;;;;;9.18;6.63;;;;;;;;;;5014334;28;20053;-80
2022/11/05 07:41:52;;;;;;;10.13;6.93;;;;;;;;;;5015205;28;20044;-81
2022/11/05 07:44:17;;;;;;;11.60;7.60;;;;;;;;;;5013016;28;20029;-80
2022/11/05 07:46:42;;;;;;;11.43;6.85;;;;;;;;;;5016513;28;20040;-81
2022/11/05 07:49:08;;;;;;;9.18;6.65;;;;;;;;;;5017758;28;20030;-80
2022/11/05 07:51:34;;;;;;;10.40;7.25;;;;;;;;;;5017395;28;20022;-80
2022/11/05 07:54:01;;;;;;;12.95;7.38;;;;;;;;;;5018145;28;20026;-80
2022/11/05 07:56:26;;;;;;;9.15;5.93;;;;;;;;;;5018916;28;20045;-81
2022/11/05 07:58:52;;;;;;;11.48;6.78;;;;;;;;;;5016834;28;20030;-81
2022/11/05 08:01:17;;;;;;;11.02;6.60;;;;;;;;;;5018412;28;20033;-79
2022/11/05 08:03:43;;;;;;;18.48;7.47;;;;;;;;;;5019005;28;20045;-82
2022/11/05 08:06:08;;;;;;;11.85;6.78;;;;;;;;;;5016235;28;20581;-80
2022/11/05 08:08:34;;;;;;;12.02;6.03;;;;;;;;;;5013654;28;20394;-80
2022/11/05 08:11:04;;;;;;;12.43;6.32;;;;;;;;;;5014149;28;20022;-81
2022/11/05 08:13:30;;;;;;;12.53;6.77;;;;;;;;;;5016644;28;20030;-81
2022/11/05 08:15:56;;;;;;;11.10;7.63;;;;;;;;;;5014824;28;20022;-81
2022/11/05 08:18:22;;;;;;;8.68;6.22;;;;;;;;;;4998946;28;20026;-80
2022/11/05 08:20:49;;;;;;;10.80;6.78;;;;;;;;;;5015442;28;20037;-79
2022/11/05 08:23:14;;;;;;;15.25;7.18;;;;;;;;;;5016002;28;20025;-81
2022/11/05 08:25:40;;;;;;;10.57;6.40;;;;;;;;;;5011220;28;20014;-81
2022/11/05 08:28:09;;;;;;;10.02;6.68;;;;;;;;;;4995204;28;20023;-80
2022/11/05 08:30:34;;;;;;;17.30;10.23;;;;;;;;;;4995873;28;20082;-79
2022/11/05 08:33:05;;;;;;;13.13;7.47;;;;;;;;;;5010048;28;20059;-80
2022/11/05 08:35:33;;;;;;;13.30;6.97;;;;;;;;;;4995626;28;20086;-81
2022/11/05 08:38:01;;;;;;;8.88;6.25;;;;;;;;;;4995338;28;20339;-81
2022/11/05 08:40:29;;;;;;;11.00;5.57;;;;;;;;;;4997861;28;20109;-81
2022/11/05 08:42:59;;;;;;;12.50;7.22;;;;;;;;;;4998237;28;20026;-80
2022/11/05 08:45:26;;;;;;;12.30;6.22;;;;;;;;;;4999467;28;20030;-79
2022/11/05 08:48:16;;;;;;;12.18;7.35;;;;;;;;;;4999621;28;20039;-81
2022/11/05 08:51:00;;;;;;;14.25;6.90;;;;;;;;;;4999079;28;20088;-80
2022/11/05 08:53:26;;;;;;;12.80;7.05;;;;;;;;;;4997573;28;20026;-79
2022/11/05 08:55:52;;;;;;;13.82;7.47;;;;;;;;;;4998498;28;20026;-80
2022/11/05 08:58:19;;;;;;;14.20;7.03;;;;;;;;;;5000338;28;20097;-80
2022/11/05 09:00:47;;;;;;;12.38;7.78;;;;;;;;;;4999398;28;20046;-77
2022/11/05 09:03:13;;;;;;;10.55;6.97;;;;;;;;;;4998958;28;20022;-81
2022/11/05 09:05:41;;;;;;;10.05;6.88;;;;;;;;;;4999640;28;20058;-81
2022/11/05 09:08:09;;;;;;;9.35;6.75;;;;;;;;;;4998227;28;20410;-80
2022/11/05 09:10:35;;;;;;;11.25;6.55;;;;;;;;;;4999433;28;20117;-80
2022/11/05 09:13:01;;;;;;;13.70;6.70;;;;;;;;;;4999523;28;20054;-82
2022/11/05 09:15:28;;;;;;;23.25;11.25;;;;;;;;;;4998537;28;20034;-80
2022/11/05 09:17:54;;;;;;;13.57;7.13;;;;;;;;;;4996731;28;20041;-80
2022/11/05 09:20:19;;;;;;;19.83;7.55;;;;;;;;;;4998279;28;20030;-82
2022/11/05 09:22:46;;;;;;;13.48;7.82;;;;;;;;;;5000210;28;20347;-82
2022/11/05 09:25:11;;;;;;;14.73;6.72;;;;;;;;;;4997305;28;20026;-81
2022/11/05 09:27:37;;;;;;;11.10;6.80;;;;;;;;;;4997642;28;20057;-82
2022/11/05 09:30:03;;;;;;;11.57;6.85;;;;;;;;;;4998640;28;20073;-81
2022/11/05 09:32:32;;;;;;;14.50;7.20;;;;;;;;;;4997498;28;20061;-79
2022/11/05 09:35:01;;;;;;;16.90;6.75;;;;;;;;;;4996262;28;20042;-80
2022/11/05 09:37:27;;;;;;;11.40;6.13;;;;;;;;;;4996590;28;20030;-81
2022/11/05 09:39:54;;;;;;;22.88;9.60;;;;;;;;;;4998185;28;20050;-82
2022/11/05 09:42:29;;;;;;;11.52;6.50;;;;;;;;;;5013773;28;20037;-80
2022/11/05 09:45:02;;;;;;;13.77;6.53;;;;;;;;;;4996001;28;20348;-82
2022/11/05 09:47:43;;;;;;;12.27;6.75;;;;;;;;;;4996896;28;20487;-80
2022/11/05 09:50:17;;;;;;;9.57;5.80;;;;;;;;;;4995856;28;20073;-77
2022/11/05 09:52:42;;;;;;;7.47;4.80;;;;;;;;;;4994194;28;20061;-81
2022/11/05 09:55:25;;;;;;;7.90;5.03;;;;;;;;;;4996176;28;20042;-79
2022/11/05 09:57:58;;;;;;;6.95;4.63;;;;;;;;;;4996971;28;20130;-82
2022/11/05 10:00:24;;;;;;;8.50;4.53;;;;;;;;;;4995896;28;20035;-81
2022/11/05 10:02:54;;;;;;;8.70;4.72;;;;;;;;;;4996994;28;20088;-80
2022/11/05 10:05:22;;;;;;;8.90;4.07;;;;;;;;;;4997455;28;20387;-80
2022/11/05 10:07:58;;;;;;;7.28;4.68;;;;;;;;;;4997057;28;20497;-80
2022/11/05 10:10:42;;;;;;;7.13;3.90;;;;;;;;;;4997074;28;20022;-82
2022/11/05 10:13:16;;;;;;;9.18;3.95;;;;;;;;;;4996560;28;20390;-81
2022/11/05 10:15:54;;;;;;;6.47;3.85;;;;;;;;;;4997040;28;20374;-79
2022/11/05 10:18:29;;;;;;;6.25;3.85;;;;;;;;;;4996716;28;20040;-81
2022/11/05 10:20:55;;;;;;;7.30;4.30;;;;;;;;;;4996688;28;20022;-80
2022/11/05 10:23:22;;;;;;;5.75;3.10;;;;;;;;;;4997061;28;20110;-80
2022/11/05 10:25:51;;;;;;;8.48;2.95;;;;;;;;;;5012252;28;20133;-81
2022/11/05 10:28:23;;;;;;;3.20;2.58;;;;;;;;;;4995157;28;20041;-80
2022/11/05 10:30:55;;;;;;;6.32;2.70;;;;;;;;;;4996592;28;20101;-80
2022/11/05 10:33:32;;;;;;;;;;;;;;;;;;4995428;28;20022;-80
2022/11/05 10:36:05;;;;;;;5.93;2.70;;;;;;;;;;4996520;28;19926;-81
2022/11/05 10:38:31;;;;;;;7.20;2.58;;;;;;;;;;4995007;28;20048;-82
2022/11/05 10:41:11;;;;;;;8.98;3.00;;;;;;;;;;4995946;28;20070;-80
2022/11/05 10:43:44;;;;;;;4.32;2.42;;;;;;;;;;4996765;28;20034;-81
2022/11/05 10:46:25;;;;;;;5.90;2.47;;;;;;;;;;4995479;28;20600;-81
2022/11/05 10:49:33;;;;;;;8.85;3.17;;;;;;;;;;4996479;28;20490;-79
2022/11/05 10:52:10;;;;;;;7.47;2.53;;;;;;;;;;4994764;28;20405;-81
2022/11/05 10:54:35;;;;;;;14.10;2.40;;;;;;;;;;4997003;28;20482;-81
2022/11/05 10:57:29;;;;;;;8.43;2.50;;;;;;;;;;4996598;28;20105;-82
2022/11/05 11:00:17;;;;;;;6.88;2.47;;;;;;;;;;4994775;28;20026;-79
2022/11/05 11:03:10;;;;;;;8.15;3.10;;;;;;;;;;4994870;28;20057;-80
2022/11/05 11:05:38;;;;;;;4.68;2.22;;;;;;;;;;4995090;28;20026;-82
2022/11/05 11:08:10;;;;;;;6.03;2.40;;;;;;;;;;4995143;28;20462;-80
2022/11/05 11:10:47;;;;;;;5.32;2.72;;;;;;;;;;4995912;28;20541;-82
2022/11/05 11:13:27;;;;;;;7.25;3.22;;;;;;;;;;4994731;28;20052;-81
2022/11/05 11:16:14;;;;;;;6.13;2.60;;;;;;;;;;4994749;28;20034;-79
2022/11/05 11:18:41;;;;;;;7.20;2.50;;;;;;;;;;4995937;28;20026;-83
2022/11/05 11:21:14;;;;;;;4.63;2.17;;;;;;;;;;4996202;28;20035;-81
2022/11/05 11:23:41;;;;;;;3.20;2.30;;;;;;;;;;4995649;28;20025;-80
2022/11/05 11:26:09;;;;;;;8.82;3.08;;;;;;;;;;5006241;28;20402;-81
2022/11/05 11:28:44;;;;;;;5.80;2.10;;;;;;;;;;5017247;28;20108;-81
2022/11/05 11:31:16;;;;;;;5.60;2.42;;;;;;;;;;5015781;28;20397;-80
2022/11/05 11:33:43;;;;;;;;;;;;;;;;;;5014981;28;20083;-81
2022/11/05 11:36:11;;;;;;;6.70;2.72;;;;;;;;;;5016789;28;19921;-80
2022/11/05 11:38:37;;;;;;;5.68;3.15;;;;;;;;;;5015380;28;20042;-82
2022/11/05 11:41:30;;;;;;;2.95;2.58;;;;;;;;;;5015644;28;20021;-81
2022/11/05 11:44:30;;;;;;;8.23;2.55;;;;;;;;;;5015904;28;20054;-80
2022/11/05 11:47:00;;;;;;;9.43;4.30;;;;;;;;;;5024737;28;20042;-80
2022/11/05 11:49:56;;;;;;;11.05;3.50;;;;;;;;;;5015959;28;20037;-80
2022/11/05 11:52:29;;;;;;;6.00;3.10;;;;;;;;;;5015601;28;20026;-81
2022/11/05 11:55:10;;;;;;;8.07;2.80;;;;;;;;;;5014090;28;20033;-80
2022/11/05 11:57:44;;;;;;;8.23;2.95;;;;;;;;;;5015593;28;20045;-80
2022/11/05 12:00:10;;;;;;;7.32;2.58;;;;;;;;;;5015206;28;20113;-80
2022/11/05 12:03:09;;;;;;;5.28;2.50;;;;;;;;;;5016318;28;20050;-80
2022/11/05 12:05:41;;;;;;;7.10;2.70;;;;;;;;;;5014910;28;20541;-82
2022/11/05 12:08:38;;;;;;;11.05;3.17;;;;;;;;;;5014748;28;20036;-82
2022/11/05 12:11:30;;;;;;;9.57;4.05;;;;;;;;;;5012596;28;20044;-80
2022/11/05 12:14:33;;;;;;;6.90;3.67;;;;;;;;;;5011905;28;20437;-80
2022/11/05 12:17:24;;;;;;;10.55;3.78;;;;;;;;;;5012457;28;20112;-81
2022/11/05 12:19:57;;;;;;;10.90;2.80;;;;;;;;;;5046592;28;20029;-81
2022/11/05 12:22:55;;;;;;;4.10;2.47;;;;;;;;;;5013392;28;20065;-81
2022/11/05 12:25:26;;;;;;;7.68;2.97;;;;;;;;;;5015098;28;20026;-79
2022/11/05 12:28:30;;;;;;;6.22;2.40;;;;;;;;;;5014154;28;20029;-80
2022/11/05 12:31:14;;;;;;;4.55;2.33;;;;;;;;;;5014496;28;20312;-81
2022/11/05 12:33:55;;;;;;;4.65;3.22;;;;;;;;;;5014013;28;20037;-81
2022/11/05 12:36:39;;;;;;;5.90;2.88;;;;;;;;;;5011747;28;20362;-80
2022/11/05 12:39:11;;;;;;;5.95;3.58;;;;;;;;;;5013797;28;20053;-80
2022/11/05 12:42:01;;;;;;;5.25;3.20;;;;;;;;;;5015639;28;20042;-80
2022/11/05 12:44:57;;;;;;;7.82;3.03;;;;;;;;;;5015125;28;20032;-81
2022/11/05 12:47:48;;;;;;;9.82;2.97;;;;;;;;;;5016190;28;20060;-82
2022/11/05 12:50:32;;;;;;;4.87;3.03;;;;;;;;;;5014437;28;20057;-81
2022/11/05 12:53:06;;;;;;;7.35;3.13;;;;;;;;;;5014723;28;20041;-81
2022/11/05 12:55:45;;;;;;;8.35;3.97;;;;;;;;;;5015270;28;20106;-81
2022/11/05 12:58:35;;;;;;;8.05;3.88;;;;;;;;;;5015008;28;20105;-80
2022/11/05 13:01:26;;;;;;;8.93;3.83;;;;;;;;;;5014191;28;20436;-82
2022/11/05 13:04:00;;;;;;;5.97;3.53;;;;;;;;;;5019220;28;20037;-79
2022/11/05 13:06:39;;;;;;;8.55;3.85;;;;;;;;;;5013107;28;20022;-81
2022/11/05 13:09:18;;;;;;;9.43;3.70;;;;;;;;;;5015914;28;20157;-80
2022/11/05 13:12:05;;;;;;;9.13;3.58;;;;;;;;;;5014124;28;20022;-81
2022/11/05 13:14:42;;;;;;;12.07;3.58;;;;;;;;;;5013941;28;20314;-80
2022/11/05 13:17:32;;;;;;;9.57;3.78;;;;;;;;;;5012762;28;20030;-82
2022/11/05 13:20:13;;;;;;;6.32;3.78;;;;;;;;;;5029135;28;20124;-81
2022/11/05 13:22:43;;;;;;;12.32;4.40;;;;;;;;;;5012839;28;20029;-81
2022/11/05 13:25:30;;;;;;;10.00;4.40;;;;;;;;;;5014219;28;20413;-80
2022/11/05 13:28:32;;;;;;;14.20;4.25;;;;;;;;;;5015890;28;20124;-81
2022/11/05 13:31:01;;;;;;;15.60;5.22;;;;;;;;;;5017993;28;20030;-81
2022/11/05 13:33:34;;;;;;;8.20;3.95;;;;;;;;;;5016772;28;20033;-80
2022/11/05 13:39:10;;;;;;;15.73;5.00;;;;;;;;;;5017939;28;20053;-80
2022/11/05 13:41:42;;;;;;;11.40;5.88;;;;;;;;;;5018188;28;20482;-81
2022/11/05 13:44:22;;;;;;;7.10;4.00;;;;;;;;;;5016526;28;20588;-80
2022/11/05 13:47:10;;;;;;;16.60;9.00;;;;;;;;;;5017945;28;20425;-79
2022/11/05 13:50:09;;;;;;;12.00;4.15;;;;;;;;;;5018296;28;20034;-80
2022/11/05 13:53:08;;;;;;;10.85;4.38;;;;;;;;;;5016463;28;20028;-79
2022/11/05 13:55:52;;;;;;;11.57;4.65;;;;;;;;;;5017116;28;20030;-80
2022/11/05 13:58:38;;;;;;;9.23;3.83;;;;;;;;;;5016145;28;20059;-80
2022/11/05 14:01:29;;;;;;;9.85;4.35;;;;;;;;;;5017536;28;20081;-80
2022/11/05 14:03:55;;;;;;;9.18;4.35;;;;;;;;;;5016988;28;20095;-80
2022/11/05 14:06:30;;;;;;;9.52;3.90;;;;;;;;;;5018467;28;20458;-80
2022/11/05 14:09:02;;;;;;;15.00;4.93;;;;;;;;;;5017608;28;20014;-80
2022/11/05 14:11:33;;;;;;;;;;;;;;;;;;5032246;28;20034;-80
2022/11/05 14:14:04;;;;;;;9.35;3.67;;;;;;;;;;5034106;28;19913;-81
2022/11/05 14:17:06;;;;;;;8.30;3.53;;;;;;;;;;5018872;28;20505;-80
2022/11/05 14:19:34;;;;;;;8.82;4.03;;;;;;;;;;5017280;28;20037;-81
2022/11/05 14:22:41;;;;;;;9.65;4.20;;;;;;;;;;5049109;28;20401;-79
2022/11/05 14:25:23;;;;;;;9.13;4.35;;;;;;;;;;5031946;28;20041;-81
2022/11/05 14:27:51;;;;;;;12.43;3.88;;;;;;;;;;5016819;28;20034;-81
2022/11/05 14:30:55;;;;;;;9.95;4.50;;;;;;;;;;5015133;28;20045;-80
2022/11/05 14:33:24;;;;;;;13.30;3.97;;;;;;;;;;5052871;28;20044;-80
2022/11/05 14:35:51;;;;;;;10.52;3.90;;;;;;;;;;5037408;28;20039;-80
2022/11/05 14:38:25;;;;;;;12.75;4.15;;;;;;;;;;5007123;28;20056;-80
2022/11/05 14:41:01;;;;;;;7.85;3.50;;;;;;;;;;5016717;28;20056;-80
2022/11/05 14:43:31;;;;;;;8.25;3.70;;;;;;;;;;5015060;28;20057;-81
2022/11/05 14:46:00;;;;;;;11.00;2.92;;;;;;;;;;5015751;28;20243;-80
2022/11/05 14:48:59;;;;;;;5.30;3.35;;;;;;;;;;5015886;28;20029;-81
2022/11/05 14:51:34;;;;;;;11.82;5.25;;;;;;;;;;5014737;28;20518;-81
2022/11/05 14:54:25;;;;;;;10.95;3.88;;;;;;;;;;5015675;28;20026;-82
2022/11/05 14:57:01;;;;;;;14.57;3.85;;;;;;;;;;5016713;28;20057;-80
2022/11/05 14:59:27;;;;;;;6.93;4.00;;;;;;;;;;5015837;28;20213;-82
2022/11/05 15:02:00;;;;;;;8.23;3.58;;;;;;;;;;5016376;28;20433;-80
2022/11/05 15:04:35;;;;;;;12.55;4.75;;;;;;;;;;5015466;28;20045;-79
2022/11/05 15:07:00;;;;;;;6.53;3.90;;;;;;;;;;5015347;28;20026;-80
2022/11/05 15:09:28;;;;;;;8.25;4.03;;;;;;;;;;5013853;28;20434;-81
2022/11/05 15:11:54;;;;;;;10.90;4.38;;;;;;;;;;5014282;28;20061;-81
2022/11/05 15:14:26;;;;;;;10.65;3.45;;;;;;;;;;5013734;28;20037;-79
2022/11/05 15:16:54;;;;;;;10.68;4.82;;;;;;;;;;5015266;28;20061;-79
2022/11/05 15:19:29;;;;;;;14.52;4.40;;;;;;;;;;5013999;28;20022;-81
2022/11/05 15:21:57;;;;;;;10.48;3.80;;;;;;;;;;5015542;28;20029;-81
2022/11/05 15:24:27;;;;;;;12.07;4.90;;;;;;;;;;5047251;28;20044;-80
2022/11/05 15:27:05;;;;;;;10.15;4.40;;;;;;;;;;4997546;28;20228;-81
2022/11/05 15:29:32;;;;;;;9.23;4.20;;;;;;;;;;4995272;28;20014;-80
2022/11/05 15:31:58;;;;;;;9.82;4.18;;;;;;;;;;4995975;28;20128;-80
2022/11/05 15:34:29;;;;;;;12.07;4.95;;;;;;;;;;4995907;28;20037;-79
2022/11/05 15:37:01;;;;;;;9.85;4.18;;;;;;;;;;4998121;28;20050;-79
2022/11/05 15:39:45;;;;;;;9.68;3.90;;;;;;;;;;4996273;28;20046;-81
2022/11/05 15:42:14;;;;;;;6.18;3.97;;;;;;;;;;4995937;28;20487;-78
2022/11/05 15:44:49;;;;;;;11.32;4.38;;;;;;;;;;4995619;28;20033;-79
2022/11/05 15:47:33;;;;;;;8.32;4.68;;;;;;;;;;4994252;28;20034;-80
2022/11/05 15:50:02;;;;;;;8.38;4.20;;;;;;;;;;4993324;28;20164;-80
2022/11/05 15:52:35;;;;;;;14.48;4.68;;;;;;;;;;4993854;28;20382;-80
2022/11/05 15:55:12;;;;;;;12.02;4.78;;;;;;;;;;4993635;28;20557;-80
2022/11/05 15:57:46;;;;;;;11.23;4.68;;;;;;;;;;4994759;28;20030;-80